KRQE

Window Rock Airport

Window Rock, Arizona, USA
METAR KRQE 160053Z AUTO 00000KT 10SM CLR 06/M12 A3031 RMK AO2 SLP246 T00561122
Observed Flight Rules
Dec-16 @ 00:53 UTC (50 minutes ago) Visual Flight Rules
Visibility Clouds
10 miles
  • Clear skies
Temperatures Readings
Current 6°C / 43°F
Dewpoint -12°C / 10°F
Humidity 26%
Altimeter 30.31" Hg
Pressure 1024.6 hPa
Elevation 2055
METAR KRQE 160053Z AUTO 00000KT 10SM CLR 06/M12 A3031 RMK AO2 SLP246 T00561122
Observed Flight Rules
Dec-16 @ 00:53 UTC
(50 minutes ago)
VFR
Clouds
  • Clear skies
Temperature Dewpoint
6°C / 43°F -12°C / 10°F
Humidity Altimeter Pressure
26% 30.31" Hg 1024.6 hPa